sensor_id;sensor_type;location;lat;lon;timestamp;P1;P2;P0
76049;PMS7003;64967;50.234;19.224;2023-07-20T00:01:52;2.33;2.33;2.00
76049;PMS7003;64967;50.234;19.224;2023-07-20T00:04:19;3.33;2.00;1.00
76049;PMS7003;64967;50.234;19.224;2023-07-20T00:06:47;4.00;4.00;3.67
76049;PMS7003;64967;50.234;19.224;2023-07-20T00:09:14;3.00;3.00;3.00
76049;PMS7003;64967;50.234;19.224;2023-07-20T00:11:47;2.00;2.00;2.00
76049;PMS7003;64967;50.234;19.224;2023-07-20T00:14:15;2.67;2.33;1.67
76049;PMS7003;64967;50.234;19.224;2023-07-20T00:16:42;3.00;3.00;3.00
76049;PMS7003;64967;50.234;19.224;2023-07-20T00:19:09;2.00;2.00;2.00
76049;PMS7003;64967;50.234;19.224;2023-07-20T00:21:36;3.00;2.00;2.00
76049;PMS7003;64967;50.234;19.224;2023-07-20T00:24:06;1.00;0.67;0.67
76049;PMS7003;64967;50.234;19.224;2023-07-20T00:26:34;0.67;0.67;0.67
76049;PMS7003;64967;50.234;19.224;2023-07-20T00:29:01;3.00;3.00;2.00
76049;PMS7003;64967;50.234;19.224;2023-07-20T00:31:28;3.67;3.67;3.33
76049;PMS7003;64967;50.234;19.224;2023-07-20T00:33:56;6.00;5.00;4.00
76049;PMS7003;64967;50.234;19.224;2023-07-20T00:36:23;5.00;5.00;5.00
76049;PMS7003;64967;50.234;19.224;2023-07-20T00:38:50;6.00;6.00;5.00
76049;PMS7003;64967;50.234;19.224;2023-07-20T00:41:17;8.00;7.33;6.67
76049;PMS7003;64967;50.234;19.224;2023-07-20T00:43:44;9.75;9.75;8.25
76049;PMS7003;64967;50.234;19.224;2023-07-20T00:46:11;11.00;8.00;7.00
76049;PMS7003;64967;50.234;19.224;2023-07-20T00:48:40;7.00;7.00;6.33
76049;PMS7003;64967;50.234;19.224;2023-07-20T00:51:12;6.33;4.33;4.00
76049;PMS7003;64967;50.234;19.224;2023-07-20T00:53:39;7.33;6.33;6.00
76049;PMS7003;64967;50.234;19.224;2023-07-20T00:56:07;8.00;8.00;7.00
76049;PMS7003;64967;50.234;19.224;2023-07-20T00:58:35;5.67;5.67;5.33
76049;PMS7003;64967;50.234;19.224;2023-07-20T01:01:03;6.67;6.00;6.00
76049;PMS7003;64967;50.234;19.224;2023-07-20T01:03:31;9.00;8.00;6.00
76049;PMS7003;64967;50.234;19.224;2023-07-20T01:06:10;7.33;7.00;5.00
76049;PMS7003;64967;50.234;19.224;2023-07-20T01:12:40;7.00;7.00;6.00
76049;PMS7003;64967;50.234;19.224;2023-07-20T01:15:48;9.00;8.00;7.00
76049;PMS7003;64967;50.234;19.224;2023-07-20T01:18:37;8.00;8.00;6.33
76049;PMS7003;64967;50.234;19.224;2023-07-20T01:21:28;10.00;7.67;6.33
76049;PMS7003;64967;50.234;19.224;2023-07-20T01:26:48;8.33;7.67;6.00
76049;PMS7003;64967;50.234;19.224;2023-07-20T01:29:51;6.00;4.67;4.00
76049;PMS7003;64967;50.234;19.224;2023-07-20T01:32:40;5.00;4.00;3.67
76049;PMS7003;64967;50.234;19.224;2023-07-20T01:35:09;3.00;3.00;2.33
76049;PMS7003;64967;50.234;19.224;2023-07-20T01:37:41;4.00;4.00;3.67
76049;PMS7003;64967;50.234;19.224;2023-07-20T01:40:11;4.00;4.00;3.67
76049;PMS7003;64967;50.234;19.224;2023-07-20T01:42:45;2.33;2.33;2.00
76049;PMS7003;64967;50.234;19.224;2023-07-20T01:45:13;2.00;2.00;2.00
76049;PMS7003;64967;50.234;19.224;2023-07-20T01:47:41;2.33;2.00;1.67
76049;PMS7003;64967;50.234;19.224;2023-07-20T01:50:08;1.67;1.67;1.00
76049;PMS7003;64967;50.234;19.224;2023-07-20T01:52:35;1.00;1.00;1.00
76049;PMS7003;64967;50.234;19.224;2023-07-20T01:55:02;1.33;1.33;1.00
76049;PMS7003;64967;50.234;19.224;2023-07-20T01:57:31;1.00;1.00;1.00
76049;PMS7003;64967;50.234;19.224;2023-07-20T01:59:58;1.00;1.00;1.00
76049;PMS7003;64967;50.234;19.224;2023-07-20T02:02:26;2.00;1.00;1.00
76049;PMS7003;64967;50.234;19.224;2023-07-20T02:04:54;1.67;1.00;1.00
76049;PMS7003;64967;50.234;19.224;2023-07-20T02:07:22;2.33;2.00;2.00
76049;PMS7003;64967;50.234;19.224;2023-07-20T02:09:49;2.33;2.33;2.00
76049;PMS7003;64967;50.234;19.224;2023-07-20T02:12:16;2.00;1.00;1.00
76049;PMS7003;64967;50.234;19.224;2023-07-20T02:14:43;1.00;1.00;1.00
76049;PMS7003;64967;50.234;19.224;2023-07-20T02:17:10;2.00;2.00;2.00
76049;PMS7003;64967;50.234;19.224;2023-07-20T02:19:37;2.00;2.00;2.00
76049;PMS7003;64967;50.234;19.224;2023-07-20T02:22:05;4.00;4.00;4.00
76049;PMS7003;64967;50.234;19.224;2023-07-20T02:24:33;2.00;2.00;2.00
76049;PMS7003;64967;50.234;19.224;2023-07-20T02:27:00;5.00;5.00;4.00
76049;PMS7003;64967;50.234;19.224;2023-07-20T02:29:28;7.00;6.00;5.67
76049;PMS7003;64967;50.234;19.224;2023-07-20T02:31:55;8.00;6.67;6.00
76049;PMS7003;64967;50.234;19.224;2023-07-20T02:34:22;7.25;6.50;6.00
76049;PMS7003;64967;50.234;19.224;2023-07-20T02:36:49;6.00;6.00;5.33
76049;PMS7003;64967;50.234;19.224;2023-07-20T02:39:16;8.00;8.00;7.00
76049;PMS7003;64967;50.234;19.224;2023-07-20T02:41:43;5.00;5.00;4.67
76049;PMS7003;64967;50.234;19.224;2023-07-20T02:44:10;11.00;10.00;8.00
76049;PMS7003;64967;50.234;19.224;2023-07-20T02:46:37;8.67;7.67;6.00
76049;PMS7003;64967;50.234;19.224;2023-07-20T02:49:04;7.00;7.00;6.00
76049;PMS7003;64967;50.234;19.224;2023-07-20T02:51:32;8.00;8.00;7.00
76049;PMS7003;64967;50.234;19.224;2023-07-20T02:53:59;8.67;8.00;7.00
76049;PMS7003;64967;50.234;19.224;2023-07-20T02:56:26;6.67;6.00;5.67
76049;PMS7003;64967;50.234;19.224;2023-07-20T02:58:53;7.33;6.33;5.33
76049;PMS7003;64967;50.234;19.224;2023-07-20T03:01:20;4.67;4.33;4.00
76049;PMS7003;64967;50.234;19.224;2023-07-20T03:03:47;2.00;2.00;1.00
76049;PMS7003;64967;50.234;19.224;2023-07-20T03:06:14;5.00;5.00;4.00
76049;PMS7003;64967;50.234;19.224;2023-07-20T03:08:42;3.00;3.00;3.00
76049;PMS7003;64967;50.234;19.224;2023-07-20T03:11:14;6.67;5.33;5.00
76049;PMS7003;64967;50.234;19.224;2023-07-20T03:13:42;5.00;5.00;5.00
76049;PMS7003;64967;50.234;19.224;2023-07-20T03:16:10;5.00;5.00;3.00
76049;PMS7003;64967;50.234;19.224;2023-07-20T03:18:38;3.00;3.00;3.00
76049;PMS7003;64967;50.234;19.224;2023-07-20T03:21:05;5.00;5.00;5.00
76049;PMS7003;64967;50.234;19.224;2023-07-20T03:23:34;5.75;5.75;4.00
76049;PMS7003;64967;50.234;19.224;2023-07-20T03:26:01;5.00;5.00;4.00
76049;PMS7003;64967;50.234;19.224;2023-07-20T03:28:28;6.75;6.25;5.25
76049;PMS7003;64967;50.234;19.224;2023-07-20T03:30:55;8.00;7.00;6.00
76049;PMS7003;64967;50.234;19.224;2023-07-20T03:33:27;5.25;5.25;5.00
76049;PMS7003;64967;50.234;19.224;2023-07-20T03:35:55;6.00;6.00;5.00
76049;PMS7003;64967;50.234;19.224;2023-07-20T03:38:23;6.00;5.00;5.00
76049;PMS7003;64967;50.234;19.224;2023-07-20T03:40:51;7.00;7.00;6.00
76049;PMS7003;64967;50.234;19.224;2023-07-20T03:43:22;7.00;5.00;4.75
76049;PMS7003;64967;50.234;19.224;2023-07-20T03:45:51;9.25;7.75;6.75
76049;PMS7003;64967;50.234;19.224;2023-07-20T03:48:19;7.00;7.00;6.50
76049;PMS7003;64967;50.234;19.224;2023-07-20T03:50:49;6.00;5.75;5.75
76049;PMS7003;64967;50.234;19.224;2023-07-20T03:53:19;4.75;4.00;4.00
76049;PMS7003;64967;50.234;19.224;2023-07-20T03:55:47;6.00;5.00;4.50
76049;PMS7003;64967;50.234;19.224;2023-07-20T03:58:15;6.00;5.00;5.00
76049;PMS7003;64967;50.234;19.224;2023-07-20T04:00:46;6.00;6.00;5.50
76049;PMS7003;64967;50.234;19.224;2023-07-20T04:03:17;8.00;8.00;7.00
76049;PMS7003;64967;50.234;19.224;2023-07-20T04:05:46;9.75;8.25;7.50
76049;PMS7003;64967;50.234;19.224;2023-07-20T04:08:13;7.75;6.75;5.25
76049;PMS7003;64967;50.234;19.224;2023-07-20T04:10:43;7.00;6.00;5.00
76049;PMS7003;64967;50.234;19.224;2023-07-20T04:13:11;5.00;4.75;4.00
76049;PMS7003;64967;50.234;19.224;2023-07-20T04:15:39;6.00;4.75;4.00
76049;PMS7003;64967;50.234;19.224;2023-07-20T04:18:06;6.25;5.50;4.75
76049;PMS7003;64967;50.234;19.224;2023-07-20T04:20:33;5.25;5.00;4.25
76049;PMS7003;64967;50.234;19.224;2023-07-20T04:23:00;4.00;4.00;4.00
76049;PMS7003;64967;50.234;19.224;2023-07-20T04:25:27;3.00;3.00;3.00
76049;PMS7003;64967;50.234;19.224;2023-07-20T04:27:54;3.25;3.00;2.50
76049;PMS7003;64967;50.234;19.224;2023-07-20T04:30:22;4.25;3.50;3.00
76049;PMS7003;64967;50.234;19.224;2023-07-20T04:32:49;6.50;5.00;4.50
76049;PMS7003;64967;50.234;19.224;2023-07-20T04:35:17;4.50;4.50;4.25
76049;PMS7003;64967;50.234;19.224;2023-07-20T04:38:05;6.00;5.00;4.00
76049;PMS7003;64967;50.234;19.224;2023-07-20T04:40:32;4.00;3.00;3.00
76049;PMS7003;64967;50.234;19.224;2023-07-20T04:42:59;5.00;4.00;3.00
76049;PMS7003;64967;50.234;19.224;2023-07-20T04:45:26;4.50;3.00;3.00
76049;PMS7003;64967;50.234;19.224;2023-07-20T04:47:53;2.67;2.67;2.33
76049;PMS7003;64967;50.234;19.224;2023-07-20T04:50:20;2.00;2.00;1.00
76049;PMS7003;64967;50.234;19.224;2023-07-20T04:52:47;2.25;2.25;2.00
76049;PMS7003;64967;50.234;19.224;2023-07-20T04:55:14;7.00;7.00;5.75
76049;PMS7003;64967;50.234;19.224;2023-07-20T04:57:41;3.25;3.25;3.00
76049;PMS7003;64967;50.234;19.224;2023-07-20T05:00:09;5.00;4.00;3.50
76049;PMS7003;64967;50.234;19.224;2023-07-20T05:02:41;3.75;3.00;2.75
76049;PMS7003;64967;50.234;19.224;2023-07-20T05:05:09;5.50;5.50;5.00
76049;PMS7003;64967;50.234;19.224;2023-07-20T05:07:36;4.00;4.00;4.00
76049;PMS7003;64967;50.234;19.224;2023-07-20T05:10:03;2.00;2.00;1.67
76049;PMS7003;64967;50.234;19.224;2023-07-20T05:12:31;2.00;1.00;1.00
76049;PMS7003;64967;50.234;19.224;2023-07-20T05:14:58;1.00;1.00;1.00
76049;PMS7003;64967;50.234;19.224;2023-07-20T05:17:25;1.00;1.00;1.00
76049;PMS7003;64967;50.234;19.224;2023-07-20T05:19:52;2.00;2.00;1.00
76049;PMS7003;64967;50.234;19.224;2023-07-20T05:22:19;1.00;0.00;0.00
76049;PMS7003;64967;50.234;19.224;2023-07-20T05:24:46;0.33;0.33;0.33
76049;PMS7003;64967;50.234;19.224;2023-07-20T05:27:13;1.33;1.00;1.00
76049;PMS7003;64967;50.234;19.224;2023-07-20T05:29:44;2.00;2.00;1.00
76049;PMS7003;64967;50.234;19.224;2023-07-20T05:32:12;1.33;1.33;1.00
76049;PMS7003;64967;50.234;19.224;2023-07-20T05:34:40;1.33;1.33;1.00
76049;PMS7003;64967;50.234;19.224;2023-07-20T05:37:07;2.00;2.00;2.00
76049;PMS7003;64967;50.234;19.224;2023-07-20T05:39:34;2.67;2.67;2.00
76049;PMS7003;64967;50.234;19.224;2023-07-20T05:42:01;1.33;1.33;1.33
76049;PMS7003;64967;50.234;19.224;2023-07-20T05:44:28;1.33;1.00;1.00
76049;PMS7003;64967;50.234;19.224;2023-07-20T05:46:55;2.00;2.00;2.00
76049;PMS7003;64967;50.234;19.224;2023-07-20T05:49:24;2.00;2.00;2.00
76049;PMS7003;64967;50.234;19.224;2023-07-20T05:51:51;1.00;1.00;1.00
76049;PMS7003;64967;50.234;19.224;2023-07-20T05:54:18;1.33;1.33;1.00
76049;PMS7003;64967;50.234;19.224;2023-07-20T05:56:46;2.00;2.00;2.00
76049;PMS7003;64967;50.234;19.224;2023-07-20T05:59:13;1.00;1.00;1.00
76049;PMS7003;64967;50.234;19.224;2023-07-20T06:01:40;1.00;1.00;1.00
76049;PMS7003;64967;50.234;19.224;2023-07-20T06:04:08;1.00;1.00;1.00
76049;PMS7003;64967;50.234;19.224;2023-07-20T06:06:35;1.00;1.00;1.00
76049;PMS7003;64967;50.234;19.224;2023-07-20T06:09:02;1.67;1.67;1.00
76049;PMS7003;64967;50.234;19.224;2023-07-20T06:11:30;1.00;1.00;0.33
76049;PMS7003;64967;50.234;19.224;2023-07-20T06:13:57;2.00;1.00;1.00
76049;PMS7003;64967;50.234;19.224;2023-07-20T06:16:24;1.00;1.00;1.00
76049;PMS7003;64967;50.234;19.224;2023-07-20T06:18:52;1.00;1.00;1.00
76049;PMS7003;64967;50.234;19.224;2023-07-20T06:21:19;2.33;1.33;1.00
76049;PMS7003;64967;50.234;19.224;2023-07-20T06:23:46;2.00;1.67;1.67
76049;PMS7003;64967;50.234;19.224;2023-07-20T06:26:13;2.67;2.00;2.00
76049;PMS7003;64967;50.234;19.224;2023-07-20T06:28:40;2.00;2.00;2.00
76049;PMS7003;64967;50.234;19.224;2023-07-20T06:31:07;3.00;2.00;2.00
76049;PMS7003;64967;50.234;19.224;2023-07-20T06:33:34;3.00;2.33;2.00
76049;PMS7003;64967;50.234;19.224;2023-07-20T06:36:01;3.67;3.00;2.00
76049;PMS7003;64967;50.234;19.224;2023-07-20T06:38:29;2.67;2.67;2.00
76049;PMS7003;64967;50.234;19.224;2023-07-20T06:40:57;3.00;3.00;2.33
76049;PMS7003;64967;50.234;19.224;2023-07-20T06:43:45;4.00;3.00;3.00
76049;PMS7003;64967;50.234;19.224;2023-07-20T06:46:14;3.33;3.00;3.00
76049;PMS7003;64967;50.234;19.224;2023-07-20T16:11:33;1.00;1.00;1.00
76049;PMS7003;64967;50.234;19.224;2023-07-20T16:14:05;1.00;1.00;1.00
76049;PMS7003;64967;50.234;19.224;2023-07-20T16:16:33;1.33;1.33;1.00
76049;PMS7003;64967;50.234;19.224;2023-07-20T16:19:02;1.00;1.00;1.00
76049;PMS7003;64967;50.234;19.224;2023-07-20T16:21:30;1.00;1.00;1.00
76049;PMS7003;64967;50.234;19.224;2023-07-20T16:23:59;1.00;0.33;0.33
76049;PMS7003;64967;50.234;19.224;2023-07-20T16:26:26;1.00;1.00;1.00
76049;PMS7003;64967;50.234;19.224;2023-07-20T16:28:53;2.00;1.00;1.00
76049;PMS7003;64967;50.234;19.224;2023-07-20T16:31:23;1.00;1.00;1.00
76049;PMS7003;64967;50.234;19.224;2023-07-20T16:33:52;1.00;1.00;1.00
76049;PMS7003;64967;50.234;19.224;2023-07-20T16:36:33;0.67;0.67;0.67
76049;PMS7003;64967;50.234;19.224;2023-07-20T16:39:04;2.00;2.00;2.00
76049;PMS7003;64967;50.234;19.224;2023-07-20T16:41:36;1.00;1.00;1.00
76049;PMS7003;64967;50.234;19.224;2023-07-20T16:44:07;1.00;1.00;1.00
76049;PMS7003;64967;50.234;19.224;2023-07-20T16:46:34;0.67;0.67;0.67
76049;PMS7003;64967;50.234;19.224;2023-07-20T16:49:04;1.00;1.00;1.00
76049;PMS7003;64967;50.234;19.224;2023-07-20T16:51:33;1.67;1.67;1.67
76049;PMS7003;64967;50.234;19.224;2023-07-20T16:54:03;2.33;2.00;1.67
76049;PMS7003;64967;50.234;19.224;2023-07-20T16:56:34;1.00;1.00;0.33
76049;PMS7003;64967;50.234;19.224;2023-07-20T16:59:01;1.00;1.00;1.00
76049;PMS7003;64967;50.234;19.224;2023-07-20T17:01:28;4.00;3.67;3.00
76049;PMS7003;64967;50.234;19.224;2023-07-20T17:03:55;2.00;2.00;2.00
76049;PMS7003;64967;50.234;19.224;2023-07-20T17:06:22;4.00;4.00;3.00
76049;PMS7003;64967;50.234;19.224;2023-07-20T17:08:49;3.00;3.00;3.00
76049;PMS7003;64967;50.234;19.224;2023-07-20T17:11:16;2.33;2.33;2.00
76049;PMS7003;64967;50.234;19.224;2023-07-20T17:13:44;3.00;3.00;2.67
76049;PMS7003;64967;50.234;19.224;2023-07-20T17:16:11;2.00;2.00;2.00
76049;PMS7003;64967;50.234;19.224;2023-07-20T18:14:37;0.00;0.00;0.00
76049;PMS7003;64967;50.234;19.224;2023-07-20T18:17:04;1.33;1.33;1.33
76049;PMS7003;64967;50.234;19.224;2023-07-20T18:19:31;1.00;1.00;1.00
76049;PMS7003;64967;50.234;19.224;2023-07-20T18:21:58;0.00;0.00;0.00
76049;PMS7003;64967;50.234;19.224;2023-07-20T18:24:25;1.33;1.33;1.33
76049;PMS7003;64967;50.234;19.224;2023-07-20T18:26:53;2.00;1.00;1.00
76049;PMS7003;64967;50.234;19.224;2023-07-20T18:29:20;1.00;1.00;1.00
76049;PMS7003;64967;50.234;19.224;2023-07-20T18:31:48;1.00;1.00;1.00
76049;PMS7003;64967;50.234;19.224;2023-07-20T18:34:15;0.67;0.67;0.67
76049;PMS7003;64967;50.234;19.224;2023-07-20T18:36:42;0.67;0.67;0.67
76049;PMS7003;64967;50.234;19.224;2023-07-20T18:39:10;0.67;0.00;0.00
76049;PMS7003;64967;50.234;19.224;2023-07-20T18:41:37;0.00;0.00;0.00
76049;PMS7003;64967;50.234;19.224;2023-07-20T18:44:04;0.00;0.00;0.00
76049;PMS7003;64967;50.234;19.224;2023-07-20T18:46:31;0.67;0.67;0.67
76049;PMS7003;64967;50.234;19.224;2023-07-20T18:48:59;0.00;0.00;0.00
76049;PMS7003;64967;50.234;19.224;2023-07-20T18:51:26;0.00;0.00;0.00
76049;PMS7003;64967;50.234;19.224;2023-07-20T18:54:15;0.00;0.00;0.00
76049;PMS7003;64967;50.234;19.224;2023-07-20T18:56:43;0.00;0.00;0.00
76049;PMS7003;64967;50.234;19.224;2023-07-20T18:59:11;0.00;0.00;0.00
76049;PMS7003;64967;50.234;19.224;2023-07-20T19:01:41;1.00;0.00;0.00
76049;PMS7003;64967;50.234;19.224;2023-07-20T19:04:09;0.33;0.33;0.33
76049;PMS7003;64967;50.234;19.224;2023-07-20T19:06:37;0.00;0.00;0.00
76049;PMS7003;64967;50.234;19.224;2023-07-20T19:09:04;0.00;0.00;0.00
76049;PMS7003;64967;50.234;19.224;2023-07-20T19:11:31;0.00;0.00;0.00
76049;PMS7003;64967;50.234;19.224;2023-07-20T19:14:01;0.00;0.00;0.00
76049;PMS7003;64967;50.234;19.224;2023-07-20T19:16:28;1.00;1.00;1.00
76049;PMS7003;64967;50.234;19.224;2023-07-20T19:18:55;0.00;0.00;0.00
76049;PMS7003;64967;50.234;19.224;2023-07-20T19:21:23;1.00;1.00;1.00
76049;PMS7003;64967;50.234;19.224;2023-07-20T19:23:50;1.00;1.00;1.00
76049;PMS7003;64967;50.234;19.224;2023-07-20T19:26:17;2.00;1.67;1.00
76049;PMS7003;64967;50.234;19.224;2023-07-20T19:28:44;1.00;1.00;1.00
76049;PMS7003;64967;50.234;19.224;2023-07-20T19:31:12;2.67;2.67;2.00
76049;PMS7003;64967;50.234;19.224;2023-07-20T19:33:39;3.00;3.00;3.00
76049;PMS7003;64967;50.234;19.224;2023-07-20T19:36:16;2.00;2.00;2.00
76049;PMS7003;64967;50.234;19.224;2023-07-20T19:41:46;1.00;1.00;1.00
76049;PMS7003;64967;50.234;19.224;2023-07-20T19:44:24;2.00;2.00;1.67
76049;PMS7003;64967;50.234;19.224;2023-07-20T19:46:54;1.00;1.00;1.00
76049;PMS7003;64967;50.234;19.224;2023-07-20T19:49:29;2.00;2.00;2.00
76049;PMS7003;64967;50.234;19.224;2023-07-20T19:52:11;1.00;0.00;0.00
76049;PMS7003;64967;50.234;19.224;2023-07-20T19:54:41;1.00;1.00;0.67
76049;PMS7003;64967;50.234;19.224;2023-07-20T19:57:39;1.00;0.33;0.33
76049;PMS7003;64967;50.234;19.224;2023-07-20T20:00:10;2.00;2.00;2.00
76049;PMS7003;64967;50.234;19.224;2023-07-20T20:02:56;3.00;3.00;3.00
76049;PMS7003;64967;50.234;19.224;2023-07-20T20:05:29;2.67;2.67;2.00
76049;PMS7003;64967;50.234;19.224;2023-07-20T20:08:04;2.00;2.00;2.00
76049;PMS7003;64967;50.234;19.224;2023-07-20T20:10:54;2.00;2.00;2.00
76049;PMS7003;64967;50.234;19.224;2023-07-20T20:13:26;2.00;2.00;2.00
76049;PMS7003;64967;50.234;19.224;2023-07-20T20:15:54;1.00;1.00;1.00
76049;PMS7003;64967;50.234;19.224;2023-07-20T20:18:24;1.00;1.00;1.00
76049;PMS7003;64967;50.234;19.224;2023-07-20T20:20:58;1.33;1.00;1.00
76049;PMS7003;64967;50.234;19.224;2023-07-20T20:23:26;1.00;1.00;1.00
76049;PMS7003;64967;50.234;19.224;2023-07-20T20:25:54;2.00;1.00;1.00
76049;PMS7003;64967;50.234;19.224;2023-07-20T20:28:30;0.67;0.67;0.00
76049;PMS7003;64967;50.234;19.224;2023-07-20T20:31:03;0.00;0.00;0.00
76049;PMS7003;64967;50.234;19.224;2023-07-20T20:33:31;3.00;2.00;2.00
76049;PMS7003;64967;50.234;19.224;2023-07-20T20:36:04;1.67;1.67;1.00
76049;PMS7003;64967;50.234;19.224;2023-07-20T20:38:33;3.00;3.00;3.00
76049;PMS7003;64967;50.234;19.224;2023-07-20T20:41:01;2.00;2.00;2.00
76049;PMS7003;64967;50.234;19.224;2023-07-20T20:43:32;2.00;2.00;2.00
76049;PMS7003;64967;50.234;19.224;2023-07-20T20:46:03;3.00;3.00;2.33
76049;PMS7003;64967;50.234;19.224;2023-07-20T20:48:32;2.33;1.00;1.00
76049;PMS7003;64967;50.234;19.224;2023-07-20T20:51:02;1.33;1.00;1.00
76049;PMS7003;64967;50.234;19.224;2023-07-20T20:53:30;1.00;1.00;1.00
76049;PMS7003;64967;50.234;19.224;2023-07-20T20:56:01;1.00;0.67;0.67
76049;PMS7003;64967;50.234;19.224;2023-07-20T20:58:29;1.00;1.00;1.00
76049;PMS7003;64967;50.234;19.224;2023-07-20T21:01:00;0.00;0.00;0.00
76049;PMS7003;64967;50.234;19.224;2023-07-20T21:03:30;1.00;1.00;1.00
76049;PMS7003;64967;50.234;19.224;2023-07-20T21:05:58;2.00;2.00;1.67
76049;PMS7003;64967;50.234;19.224;2023-07-20T21:08:30;1.00;0.67;0.00
76049;PMS7003;64967;50.234;19.224;2023-07-20T21:11:00;1.00;1.00;1.00
76049;PMS7003;64967;50.234;19.224;2023-07-20T21:13:27;1.00;1.00;1.00
76049;PMS7003;64967;50.234;19.224;2023-07-20T21:18:50;1.00;1.00;1.00
76049;PMS7003;64967;50.234;19.224;2023-07-20T21:21:20;2.00;2.00;2.00
76049;PMS7003;64967;50.234;19.224;2023-07-20T21:23:48;1.00;1.00;0.00
76049;PMS7003;64967;50.234;19.224;2023-07-20T21:26:18;1.00;1.00;1.00
76049;PMS7003;64967;50.234;19.224;2023-07-20T21:28:49;0.67;0.67;0.33
76049;PMS7003;64967;50.234;19.224;2023-07-20T21:31:17;2.00;2.00;2.00
76049;PMS7003;64967;50.234;19.224;2023-07-20T21:33:46;2.00;2.00;1.33
76049;PMS7003;64967;50.234;19.224;2023-07-20T21:36:13;1.00;1.00;1.00
76049;PMS7003;64967;50.234;19.224;2023-07-20T21:38:40;1.67;1.67;1.00
76049;PMS7003;64967;50.234;19.224;2023-07-20T21:41:07;1.00;1.00;1.00
76049;PMS7003;64967;50.234;19.224;2023-07-20T21:43:36;1.00;1.00;1.00
76049;PMS7003;64967;50.234;19.224;2023-07-20T21:46:04;2.00;2.00;2.00
76049;PMS7003;64967;50.234;19.224;2023-07-20T21:48:32;2.00;2.00;2.00
76049;PMS7003;64967;50.234;19.224;2023-07-20T21:51:00;2.00;1.33;1.33
76049;PMS7003;64967;50.234;19.224;2023-07-20T21:53:27;1.00;1.00;1.00
76049;PMS7003;64967;50.234;19.224;2023-07-20T21:55:54;1.33;1.33;1.33
76049;PMS7003;64967;50.234;19.224;2023-07-20T21:58:21;2.67;2.00;1.67
76049;PMS7003;64967;50.234;19.224;2023-07-20T22:00:48;2.00;2.00;1.00
76049;PMS7003;64967;50.234;19.224;2023-07-20T22:03:22;1.00;1.00;1.00
76049;PMS7003;64967;50.234;19.224;2023-07-20T22:05:49;1.00;1.00;1.00
76049;PMS7003;64967;50.234;19.224;2023-07-20T22:08:22;0.00;0.00;0.00
76049;PMS7003;64967;50.234;19.224;2023-07-20T22:10:50;2.00;2.00;2.00
76049;PMS7003;64967;50.234;19.224;2023-07-20T22:13:24;2.00;1.00;1.00
76049;PMS7003;64967;50.234;19.224;2023-07-20T22:15:52;1.33;1.33;1.00
76049;PMS7003;64967;50.234;19.224;2023-07-20T22:18:19;1.00;1.00;1.00
76049;PMS7003;64967;50.234;19.224;2023-07-20T22:21:01;1.00;1.00;1.00
76049;PMS7003;64967;50.234;19.224;2023-07-20T22:23:31;1.00;1.00;1.00
76049;PMS7003;64967;50.234;19.224;2023-07-20T22:26:01;1.00;1.00;1.00
76049;PMS7003;64967;50.234;19.224;2023-07-20T22:28:28;1.00;1.00;1.00
76049;PMS7003;64967;50.234;19.224;2023-07-20T22:30:58;2.00;2.00;2.00
76049;PMS7003;64967;50.234;19.224;2023-07-20T22:33:26;1.00;1.00;1.00
76049;PMS7003;64967;50.234;19.224;2023-07-20T22:35:53;2.00;2.00;2.00
76049;PMS7003;64967;50.234;19.224;2023-07-20T22:38:23;2.00;1.00;1.00
76049;PMS7003;64967;50.234;19.224;2023-07-20T22:40:50;1.00;1.00;0.00
76049;PMS7003;64967;50.234;19.224;2023-07-20T22:43:18;2.00;2.00;1.33
76049;PMS7003;64967;50.234;19.224;2023-07-20T22:45:51;1.00;1.00;1.00
76049;PMS7003;64967;50.234;19.224;2023-07-20T22:48:19;2.00;2.00;1.67
76049;PMS7003;64967;50.234;19.224;2023-07-20T22:50:51;3.00;2.00;1.67
76049;PMS7003;64967;50.234;19.224;2023-07-20T22:53:19;3.00;2.00;1.00
76049;PMS7003;64967;50.234;19.224;2023-07-20T22:55:48;1.00;1.00;1.00
76049;PMS7003;64967;50.234;19.224;2023-07-20T22:58:15;3.00;2.00;2.00
76049;PMS7003;64967;50.234;19.224;2023-07-20T23:00:44;1.00;1.00;1.00
76049;PMS7003;64967;50.234;19.224;2023-07-20T23:03:11;2.00;2.00;1.67
76049;PMS7003;64967;50.234;19.224;2023-07-20T23:05:40;1.67;1.67;1.00
76049;PMS7003;64967;50.234;19.224;2023-07-20T23:08:07;2.00;1.00;1.00
76049;PMS7003;64967;50.234;19.224;2023-07-20T23:10:34;2.67;2.00;2.00
76049;PMS7003;64967;50.234;19.224;2023-07-20T23:13:01;1.67;1.67;1.67
76049;PMS7003;64967;50.234;19.224;2023-07-20T23:15:30;1.33;1.33;1.00
76049;PMS7003;64967;50.234;19.224;2023-07-20T23:17:57;1.33;1.33;1.00
76049;PMS7003;64967;50.234;19.224;2023-07-20T23:20:24;1.00;1.00;1.00
76049;PMS7003;64967;50.234;19.224;2023-07-20T23:22:52;4.00;2.00;2.00
76049;PMS7003;64967;50.234;19.224;2023-07-20T23:25:19;1.00;1.00;1.00
76049;PMS7003;64967;50.234;19.224;2023-07-20T23:27:50;1.00;1.00;1.00
76049;PMS7003;64967;50.234;19.224;2023-07-20T23:30:18;1.33;1.33;1.00
76049;PMS7003;64967;50.234;19.224;2023-07-20T23:32:45;2.00;2.00;2.00
76049;PMS7003;64967;50.234;19.224;2023-07-20T23:35:14;1.00;1.00;1.00
76049;PMS7003;64967;50.234;19.224;2023-07-20T23:37:41;2.00;2.00;2.00
76049;PMS7003;64967;50.234;19.224;2023-07-20T23:40:08;2.00;1.33;1.33
76049;PMS7003;64967;50.234;19.224;2023-07-20T23:42:41;1.00;1.00;1.00
76049;PMS7003;64967;50.234;19.224;2023-07-20T23:45:09;1.00;1.00;1.00
76049;PMS7003;64967;50.234;19.224;2023-07-20T23:47:38;1.00;0.00;0.00
76049;PMS7003;64967;50.234;19.224;2023-07-20T23:50:05;0.33;0.00;0.00
76049;PMS7003;64967;50.234;19.224;2023-07-20T23:52:35;1.00;1.00;0.00
76049;PMS7003;64967;50.234;19.224;2023-07-20T23:55:04;2.67;2.67;2.00
76049;PMS7003;64967;50.234;19.224;2023-07-20T23:57:33;3.67;3.00;3.00
